Time;durP1;ratioP1;P1;durP2;ratioP2;P2;SDS_P1;SDS_P2;PMS_P1;PMS_P2;Temp;Humidity;BMP_temperature;BMP_pressure;BME280_temperature;BME280_humidity;BME280_pressure;Samples;Min_cycle;Max_cycle;Signal;HPM_P1;HPM_P2
2022/05/30 00:00:23;;;;;;;2.97;2.67;;;;;;;8.54;70.18;99581.72;5072230;28;20145;-67
2022/05/30 00:02:49;;;;;;;7.63;3.35;;;;;;;8.53;70.20;99588.00;5029828;28;20119;-69
2022/05/30 00:05:15;;;;;;;5.22;3.10;;;;;;;8.52;69.87;99586.28;5057479;28;20069;-72
2022/05/30 00:07:40;;;;;;;9.60;3.97;;;;;;;8.49;70.63;99587.31;5068124;28;20414;-71
2022/05/30 00:10:08;;;;;;;7.25;3.20;;;;;;;8.50;70.24;99586.38;5056070;28;20522;-73
2022/05/30 00:12:33;;;;;;;7.30;3.30;;;;;;;8.49;70.21;99591.78;5053694;28;20075;-70
2022/05/30 00:14:58;;;;;;;5.35;3.50;;;;;;;8.47;70.29;99593.69;5053781;28;20094;-70
2022/05/30 00:17:22;;;;;;;7.28;3.88;;;;;;;8.45;70.19;99598.25;5047115;28;20075;-72
2022/05/30 00:19:47;;;;;;;7.90;3.42;;;;;;;8.41;70.42;99602.06;5027934;28;20535;-64
2022/05/30 00:22:14;;;;;;;7.00;3.38;;;;;;;8.39;70.54;99610.13;5059644;28;20042;-65
2022/05/30 00:24:39;;;;;;;7.20;3.83;;;;;;;8.36;70.98;99612.94;5038532;28;20498;-64
2022/05/30 00:27:04;;;;;;;5.38;3.80;;;;;;;8.31;70.92;99607.94;5055242;28;20050;-65
2022/05/30 00:29:29;;;;;;;4.82;3.38;;;;;;;8.30;71.05;99608.00;5062465;28;20063;-65
2022/05/30 00:31:54;;;;;;;6.85;3.67;;;;;;;8.28;71.36;99607.25;5057718;28;20050;-64
2022/05/30 00:34:20;;;;;;;8.57;3.78;;;;;;;8.27;71.25;99617.00;5057840;28;20043;-62
2022/05/30 00:36:45;;;;;;;8.55;3.50;;;;;;;8.27;71.09;99614.34;5072963;28;20086;-64
2022/05/30 00:39:10;;;;;;;5.75;3.17;;;;;;;8.25;70.65;99610.94;5047781;28;20114;-64
2022/05/30 00:41:34;;;;;;;5.00;3.33;;;;;;;8.23;71.34;99618.19;5037523;28;20108;-64
2022/05/30 00:43:59;;;;;;;5.72;3.88;;;;;;;8.22;71.38;99610.31;5037101;28;20093;-63
2022/05/30 00:46:25;;;;;;;4.15;3.05;;;;;;;8.19;71.18;99623.75;5037464;28;20075;-67
2022/05/30 00:48:51;;;;;;;7.68;3.22;;;;;;;8.20;71.97;99626.31;5055803;28;20395;-64
2022/05/30 00:51:29;;;;;;;5.60;3.30;;;;;;;8.21;72.14;99632.50;5037418;28;20071;-64
2022/05/30 00:53:56;;;;;;;8.25;3.30;;;;;;;8.17;71.44;99629.16;5054922;28;20043;-64
2022/05/30 00:56:24;;;;;;;8.43;4.25;;;;;;;8.17;71.58;99629.16;5040152;28;20047;-64
2022/05/30 00:58:51;;;;;;;10.63;3.50;;;;;;;8.15;71.54;99633.72;5045961;28;20055;-64
2022/05/30 01:01:18;;;;;;;5.55;3.60;;;;;;;8.15;71.37;99633.72;5022362;28;20158;-64
2022/05/30 01:06:35;;;;;;;9.00;3.88;;;;;;;8.10;71.64;99627.84;5066255;28;20055;-65
2022/05/30 01:09:07;;;;;;;4.82;3.38;;;;;;;8.13;72.22;99632.94;5075522;28;20040;-64
2022/05/30 01:11:47;;;;;;;8.18;4.05;;;;;;;8.16;72.32;99630.09;5060436;28;20417;-68
2022/05/30 01:14:12;;;;;;;7.07;4.25;;;;;;;8.11;71.49;99626.91;5079992;28;20039;-68
2022/05/30 01:16:37;;;;;;;5.53;3.28;;;;;;;8.10;72.11;99633.16;5057489;28;20395;-69
2022/05/30 01:19:02;;;;;;;7.65;3.50;;;;;;;8.11;72.35;99634.00;5052893;28;20040;-67
2022/05/30 01:21:38;;;;;;;8.63;3.83;;;;;;;8.10;71.70;99634.94;5050119;28;20130;-65
2022/05/30 01:24:43;;;;;;;9.55;4.03;;;;;;;8.16;71.44;99634.56;5039866;28;20035;-67
2022/05/30 01:27:54;;;;;;;5.88;3.00;;;;;;;8.14;71.78;99636.44;5070492;28;20491;-64
2022/05/30 01:30:19;;;;;;;6.82;3.70;;;;;;;8.07;72.19;99645.75;5056612;27;20134;-66
2022/05/30 01:32:45;;;;;;;5.32;3.67;;;;;;;8.02;72.41;99643.38;5074333;27;20050;-63
2022/05/30 01:35:11;;;;;;;5.60;3.72;;;;;;;8.01;72.57;99647.00;5068944;28;20051;-65
2022/05/30 01:37:39;;;;;;;4.80;3.58;;;;;;;8.02;72.31;99640.72;5060254;28;20039;-65
2022/05/30 01:40:04;;;;;;;5.70;3.33;;;;;;;8.03;71.92;99651.25;5060963;28;20062;-65
2022/05/30 01:42:31;;;;;;;6.93;3.88;;;;;;;8.06;72.46;99650.22;5053955;27;20133;-65
2022/05/30 01:44:56;;;;;;;6.95;4.30;;;;;;;8.09;71.83;99647.38;5064833;27;20184;-63
2022/05/30 01:47:21;;;;;;;8.00;4.00;;;;;;;8.14;72.56;99652.38;5081640;27;20035;-63
2022/05/30 01:49:46;;;;;;;4.85;4.03;;;;;;;8.18;71.94;99654.78;5080858;27;20095;-64
2022/05/30 01:52:11;;;;;;;8.52;3.50;;;;;;;8.24;71.46;99657.03;5055647;28;20035;-68
2022/05/30 01:54:36;;;;;;;10.75;4.15;;;;;;;8.28;71.80;99666.53;5040656;27;20050;-70
2022/05/30 01:57:21;;;;;;;;;;;;;;;8.46;70.75;99666.38;5089041;27;20060;-67
2022/05/30 02:00:12;;;;;;;9.18;4.40;;;;;;;8.41;70.16;99666.66;5035847;28;20057;-64
2022/05/30 02:02:47;;;;;;;6.32;4.35;;;;;;;8.38;70.10;99659.72;5018628;28;20086;-66
2022/05/30 02:05:12;;;;;;;6.13;4.72;;;;;;;8.38;70.78;99666.84;5001591;28;20055;-63
2022/05/30 02:07:37;;;;;;;5.82;4.28;;;;;;;8.41;70.50;99671.13;5002364;28;20092;-65
2022/05/30 02:10:04;;;;;;;8.63;4.50;;;;;;;8.47;70.68;99673.38;5017502;28;20044;-65
2022/05/30 02:12:32;;;;;;;10.75;4.70;;;;;;;8.55;70.93;99676.44;5017960;28;20073;-65
2022/05/30 02:15:07;;;;;;;5.80;4.03;;;;;;;8.62;70.41;99683.06;5008524;28;20621;-63
2022/05/30 02:17:33;;;;;;;11.25;5.30;;;;;;;8.67;70.60;99679.19;5029088;28;20064;-67
2022/05/30 02:19:58;;;;;;;8.73;4.63;;;;;;;8.74;70.24;99688.47;5047461;28;20619;-66
2022/05/30 02:22:23;;;;;;;9.90;5.28;;;;;;;8.82;69.89;99687.97;5053548;28;20494;-63
2022/05/30 02:24:48;;;;;;;7.60;4.45;;;;;;;8.90;69.56;99695.47;4988020;28;20091;-62
2022/05/30 02:27:13;;;;;;;6.22;3.60;;;;;;;9.00;70.11;99697.44;5033693;28;20123;-64
2022/05/30 02:29:39;;;;;;;6.45;4.57;;;;;;;9.12;69.21;99686.97;4996875;28;20056;-68
2022/05/30 02:32:08;;;;;;;12.23;4.47;;;;;;;9.23;68.91;99693.31;5032097;28;20091;-76
2022/05/30 02:37:19;;;;;;;7.28;4.53;;;;;;;9.53;68.30;99697.56;5050907;28;20054;-73
2022/05/30 02:39:45;;;;;;;10.85;4.53;;;;;;;9.62;67.64;99691.59;5050121;28;20039;-73
2022/05/30 02:42:33;;;;;;;6.30;4.47;;;;;;;9.73;67.07;99700.59;5049261;28;20082;-75
2022/05/30 02:44:59;;;;;;;7.18;4.53;;;;;;;9.81;66.51;99708.94;5043002;28;20497;-74
2022/05/30 02:47:24;;;;;;;8.45;4.90;;;;;;;9.88;66.59;99706.69;5059859;28;20505;-78
2022/05/30 02:49:57;;;;;;;11.23;5.10;;;;;;;9.95;66.61;99705.31;5027736;28;20833;-75
2022/05/30 02:52:21;;;;;;;8.27;4.15;;;;;;;10.01;66.77;99706.72;5042698;28;20043;-72
2022/05/30 02:54:46;;;;;;;7.72;4.53;;;;;;;10.06;66.49;99718.75;5041591;28;20044;-72
2022/05/30 02:57:17;;;;;;;9.32;4.30;;;;;;;10.19;66.02;99717.00;5035150;28;20048;-73
2022/05/30 02:59:42;;;;;;;7.38;4.22;;;;;;;10.31;65.94;99717.97;5048553;28;20035;-71
2022/05/30 03:02:07;;;;;;;9.48;4.13;;;;;;;10.47;65.31;99715.94;5049752;28;20035;-71
2022/05/30 03:04:32;;;;;;;11.52;4.70;;;;;;;10.66;64.63;99725.31;5056610;28;20178;-72
2022/05/30 03:06:57;;;;;;;5.80;3.67;;;;;;;10.84;64.34;99729.31;5047028;28;20130;-70
2022/05/30 03:09:21;;;;;;;5.90;4.22;;;;;;;11.00;63.79;99729.94;5056485;28;20031;-69
2022/05/30 03:12:18;;;;;;;5.28;3.53;;;;;;;11.22;62.92;99730.09;4973650;28;20053;-74
2022/05/30 03:14:43;;;;;;;7.28;4.25;;;;;;;11.39;62.09;99731.56;4973456;28;20176;-72
2022/05/30 03:17:08;;;;;;;6.72;4.75;;;;;;;11.55;61.30;99728.59;4957047;28;20525;-73
2022/05/30 03:19:36;;;;;;;7.25;4.47;;;;;;;11.68;60.00;99732.06;4957404;28;20045;-69
2022/05/30 03:22:01;;;;;;;6.63;3.65;;;;;;;11.88;59.94;99742.13;4974492;28;20046;-70
2022/05/30 03:24:28;;;;;;;7.22;3.63;;;;;;;12.09;59.78;99733.44;4941463;28;20062;-70
2022/05/30 03:26:53;;;;;;;5.07;3.40;;;;;;;12.30;59.15;99727.31;4957643;28;20076;-70
2022/05/30 03:29:20;;;;;;;6.60;3.47;;;;;;;12.50;58.30;99736.47;4993165;28;20089;-70
2022/05/30 03:31:48;;;;;;;4.85;3.47;;;;;;;12.63;56.90;99739.91;4977216;28;20053;-71
2022/05/30 03:34:12;;;;;;;4.35;3.25;;;;;;;12.80;57.03;99741.22;4977111;28;20080;-71
2022/05/30 03:36:38;;;;;;;8.05;4.00;;;;;;;12.97;56.76;99737.22;4961788;28;20095;-71
2022/05/30 03:39:22;;;;;;;8.40;3.53;;;;;;;13.20;56.38;99741.63;4997518;28;20107;-72
2022/05/30 03:42:13;;;;;;;7.47;3.40;;;;;;;13.42;56.01;99746.94;4976404;28;20077;-72
2022/05/30 03:45:05;;;;;;;8.75;3.25;;;;;;;13.61;54.52;99748.09;4974882;28;20136;-73
2022/05/30 03:47:44;;;;;;;5.00;3.50;;;;;;;13.81;54.20;99758.00;4986014;28;20067;-72
2022/05/30 03:50:13;;;;;;;4.82;3.90;;;;;;;13.94;53.75;99752.50;5036226;28;20050;-72
2022/05/30 03:52:38;;;;;;;5.03;3.72;;;;;;;14.08;53.61;99761.09;5035195;28;20410;-72
2022/05/30 03:55:11;;;;;;;8.27;3.65;;;;;;;14.23;52.84;99771.47;5036211;28;20138;-71
2022/05/30 03:57:36;;;;;;;4.97;3.45;;;;;;;14.31;52.62;99767.19;5019331;28;20712;-74
2022/05/30 04:00:02;;;;;;;6.03;3.00;;;;;;;14.39;50.86;99769.19;5035957;28;20601;-73
2022/05/30 04:02:28;;;;;;;5.72;3.05;;;;;;;14.53;51.67;99775.13;5036177;28;20388;-72
2022/05/30 04:04:53;;;;;;;7.75;3.78;;;;;;;14.71;51.61;99774.53;5035580;28;20496;-73
2022/05/30 04:07:18;;;;;;;12.35;4.25;;;;;;;14.89;50.87;99773.78;5012611;28;20050;-74
2022/05/30 04:10:03;;;;;;;;;;;;;;;15.22;49.65;99782.56;5020076;28;20086;-73
2022/05/30 04:13:08;;;;;;;10.93;2.97;;;;;;;15.34;49.37;99789.53;4946290;28;20435;-73
2022/05/30 04:15:56;;;;;;;5.68;3.38;;;;;;;15.49;48.83;99789.97;4956812;28;20054;-72
2022/05/30 04:18:21;;;;;;;9.88;2.70;;;;;;;15.59;48.30;99802.47;4959970;28;20127;-73
2022/05/30 04:20:46;;;;;;;4.40;3.13;;;;;;;15.73;48.00;99795.00;4976477;28;20041;-72
2022/05/30 04:23:13;;;;;;;6.03;3.28;;;;;;;15.84;47.53;99806.50;4992968;28;20086;-74
2022/05/30 04:25:46;;;;;;;6.13;3.50;;;;;;;15.99;47.49;99812.31;4976463;28;20049;-74
2022/05/30 04:28:11;;;;;;;4.38;3.20;;;;;;;16.11;47.00;99810.34;4976679;28;20057;-72
2022/05/30 04:30:40;;;;;;;6.20;3.50;;;;;;;16.32;46.98;99808.38;4960401;28;20068;-74
2022/05/30 04:33:05;;;;;;;5.05;2.80;;;;;;;16.56;45.91;99822.25;4976477;28;20029;-76
2022/05/30 04:35:31;;;;;;;5.90;2.55;;;;;;;16.87;45.52;99816.69;4960510;28;20049;-76
2022/05/30 04:37:55;;;;;;;4.00;2.80;;;;;;;17.19;44.87;99816.31;4982437;28;20120;-75
2022/05/30 04:40:46;;;;;;;6.68;2.90;;;;;;;17.62;43.38;99816.53;5000147;28;20048;-76
2022/05/30 04:43:31;;;;;;;3.70;2.58;;;;;;;18.08;43.09;99817.41;4914392;29;20074;-77
2022/05/30 04:46:17;;;;;;;13.93;3.15;;;;;;;18.45;42.10;99799.22;4903091;29;20120;-76
2022/05/30 04:48:52;;;;;;;4.50;2.33;;;;;;;18.89;40.33;99806.47;4873930;29;20052;-75
2022/05/30 04:51:17;;;;;;;4.55;2.58;;;;;;;19.19;39.74;99812.22;4874706;29;20059;-75
2022/05/30 04:53:41;;;;;;;6.15;2.60;;;;;;;19.56;39.02;99800.28;4881908;29;20055;-75
2022/05/30 04:56:38;;;;;;;5.25;2.80;;;;;;;19.96;37.93;99804.13;4853210;29;20094;-75
2022/05/30 04:59:04;;;;;;;3.42;2.50;;;;;;;20.27;37.57;99800.63;4831413;29;20079;-77
2022/05/30 05:01:30;;;;;;;5.18;2.58;;;;;;;20.58;37.15;99798.13;4846231;29;20143;-75
2022/05/30 05:03:56;;;;;;;6.32;2.75;;;;;;;20.87;35.73;99802.19;4847750;29;20565;-76
2022/05/30 05:06:21;;;;;;;6.50;2.83;;;;;;;21.12;36.05;99803.81;4881670;29;20107;-76
2022/05/30 05:08:59;;;;;;;3.47;2.60;;;;;;;21.35;34.53;99803.94;4850274;29;20083;-76
2022/05/30 05:11:47;;;;;;;4.15;2.40;;;;;;;21.32;34.31;99794.31;4864986;29;20117;-76
2022/05/30 05:14:30;;;;;;;3.33;2.93;;;;;;;21.42;35.24;99798.69;4881599;29;20052;-75
2022/05/30 05:17:08;;;;;;;3.03;2.03;;;;;;;21.69;33.63;99799.06;4866325;29;20088;-76
2022/05/30 05:19:33;;;;;;;2.30;2.00;;;;;;;21.98;33.81;99795.72;4870218;28;20233;-74
2022/05/30 05:21:58;;;;;;;2.45;1.85;;;;;;;22.20;33.59;99801.34;4906767;28;20069;-73
2022/05/30 05:24:24;;;;;;;4.18;2.22;;;;;;;22.40;32.52;99811.53;4906016;28;20047;-74
2022/05/30 05:27:07;;;;;;;4.97;2.28;;;;;;;22.57;32.00;99812.28;4942645;28;20537;-74
2022/05/30 05:29:32;;;;;;;4.50;2.15;;;;;;;22.77;31.94;99804.47;4926338;28;20453;-74
2022/05/30 05:31:57;;;;;;;6.93;2.33;;;;;;;22.88;30.92;99798.59;4925521;28;20689;-76
2022/05/30 05:34:22;;;;;;;5.10;2.63;;;;;;;22.92;31.58;99804.50;4976748;28;20042;-74
2022/05/30 05:36:47;;;;;;;3.30;2.30;;;;;;;23.10;31.29;99818.59;4976495;28;20092;-75
2022/05/30 05:39:15;;;;;;;5.25;3.03;;;;;;;23.40;30.69;99814.00;4976177;28;20168;-74
2022/05/30 05:41:46;;;;;;;1.92;1.83;;;;;;;23.75;30.45;99815.13;4959867;28;20041;-73
2022/05/30 05:44:13;;;;;;;5.03;2.00;;;;;;;24.06;29.18;99810.28;4943797;28;20046;-74
2022/05/30 05:46:39;;;;;;;9.23;2.30;;;;;;;24.15;28.32;99811.84;4977524;28;20041;-74
2022/05/30 05:49:06;;;;;;;2.80;2.25;;;;;;;24.42;27.98;99814.88;5039653;28;20048;-76
2022/05/30 05:51:31;;;;;;;5.07;2.40;;;;;;;24.71;27.99;99798.41;5061845;28;20417;-77
2022/05/30 05:54:03;;;;;;;4.63;2.90;;;;;;;25.23;27.68;99795.25;5063323;28;20043;-77
2022/05/30 05:56:29;;;;;;;7.65;2.50;;;;;;;25.95;26.54;99802.13;5064792;28;20123;-71
2022/05/30 05:58:55;;;;;;;4.53;2.92;;;;;;;26.74;25.90;99800.41;5044117;28;20035;-72
2022/05/30 06:01:29;;;;;;;4.88;3.03;;;;;;;27.47;23.97;99803.06;5060120;28;20041;-71
2022/05/30 06:03:55;;;;;;;;;;;;;;;28.01;22.18;99805.41;5061728;28;20047;-71
2022/05/30 06:06:40;;;;;;;4.80;2.20;;;;;;;28.49;23.08;99810.44;4979161;28;19965;-72
2022/05/30 06:09:06;;;;;;;4.38;2.20;;;;;;;29.11;22.24;99806.81;4979143;28;20053;-71
2022/05/30 06:11:40;;;;;;;8.23;3.80;;;;;;;29.97;21.87;99808.63;4995260;28;20057;-70
2022/05/30 06:14:04;;;;;;;4.72;2.47;;;;;;;30.74;21.21;99812.38;4962910;28;20041;-71
2022/05/30 06:16:34;;;;;;;9.77;4.00;;;;;;;31.40;20.04;99814.00;4977731;28;20050;-73
2022/05/30 06:19:01;;;;;;;3.47;2.65;;;;;;;32.07;18.47;99826.22;4998548;28;20109;-71
2022/05/30 06:21:28;;;;;;;4.75;3.08;;;;;;;32.65;18.32;99821.56;4996426;28;20073;-72
2022/05/30 06:23:54;;;;;;;6.25;3.17;;;;;;;33.17;17.74;99819.44;4978735;28;20057;-72
2022/05/30 06:26:37;;;;;;;2.78;2.30;;;;;;;33.61;17.25;99822.31;4982760;28;20049;-72
2022/05/30 06:29:23;;;;;;;2.97;2.67;;;;;;;34.02;17.25;99818.16;4928596;28;20154;-73
2022/05/30 06:31:48;;;;;;;4.72;2.50;;;;;;;34.37;16.51;99821.34;4945137;28;20055;-72
2022/05/30 06:34:12;;;;;;;2.72;2.45;;;;;;;34.79;16.12;99826.22;4928291;28;20123;-71
2022/05/30 06:36:42;;;;;;;3.78;2.72;;;;;;;35.21;16.00;99834.59;4938683;28;20486;-71
2022/05/30 06:39:07;;;;;;;2.65;2.50;;;;;;;35.64;15.59;99823.25;4936819;28;20042;-71
2022/05/30 06:41:36;;;;;;;5.93;3.05;;;;;;;35.88;14.79;99833.94;4937147;28;20145;-71
2022/05/30 06:44:06;;;;;;;3.75;3.15;;;;;;;36.13;14.37;99825.69;4965817;28;20124;-71
2022/05/30 06:46:50;;;;;;;3.13;2.85;;;;;;;36.47;14.88;99834.41;4979600;28;20053;-71
2022/05/30 06:49:33;;;;;;;23.57;15.47;;;;;;;36.89;13.99;99839.81;4981475;28;20045;-71
2022/05/30 06:51:59;;;;;;;4.68;4.28;;;;;;;37.12;13.77;99843.13;4966047;28;20046;-71
2022/05/30 06:54:24;;;;;;;3.88;3.17;;;;;;;36.51;14.06;99843.88;4963071;28;20560;-70
2022/05/30 06:59:35;;;;;;;3.33;3.08;;;;;;;35.52;14.02;99844.00;4994399;28;20049;-72
2022/05/30 07:02:04;;;;;;;3.72;3.35;;;;;;;34.74;14.58;99846.38;4961613;28;20508;-71
2022/05/30 07:04:48;;;;;;;5.65;3.25;;;;;;;34.87;15.57;99845.97;4994574;28;20041;-71
2022/05/30 07:07:31;;;;;;;3.40;3.10;;;;;;;35.75;14.45;99845.53;5056429;28;20063;-71
2022/05/30 07:10:18;;;;;;;3.47;2.97;;;;;;;36.14;13.88;99843.19;5067635;28;20078;-74
2022/05/30 07:12:57;;;;;;;12.05;8.38;;;;;;;37.16;13.96;99849.81;5057795;28;20823;-74
2022/05/30 07:15:22;;;;;;;5.53;4.15;;;;;;;38.54;12.73;99837.16;5058096;28;20039;-73
2022/05/30 07:17:47;;;;;;;3.72;3.42;;;;;;;39.88;12.47;99846.56;5058302;28;20050;-74
2022/05/30 07:20:13;;;;;;;4.53;3.70;;;;;;;40.87;11.85;99852.19;5058129;28;20047;-73
2022/05/30 07:22:58;;;;;;;4.03;3.58;;;;;;;41.45;11.87;99846.16;4994228;28;20050;-72
2022/05/30 07:26:08;;;;;;;4.68;4.28;;;;;;;41.69;10.73;99854.41;4927481;28;20511;-73
2022/05/30 07:28:51;;;;;;;5.97;4.15;;;;;;;41.48;10.96;99851.16;4962497;28;20088;-72
2022/05/30 07:31:35;;;;;;;;;;;;;;;42.41;11.07;99859.41;4974899;28;20050;-76
2022/05/30 07:34:18;;;;;;;3.77;3.57;;;;;;;40.51;10.72;99848.28;4974728;28;19925;-75
2022/05/30 07:37:15;;;;;;;4.00;3.70;;;;;;;37.34;12.47;99850.09;4916646;29;20059;-77
2022/05/30 07:40:04;;;;;;;3.47;3.17;;;;;;;34.94;14.23;99851.28;4900449;29;20518;-77
2022/05/30 07:42:53;;;;;;;3.15;2.95;;;;;;;32.45;15.62;99857.91;4897494;29;20059;-75
2022/05/30 07:45:33;;;;;;;4.95;2.70;;;;;;;30.27;17.24;99842.47;4897446;29;20159;-77
2022/05/30 07:48:19;;;;;;;6.13;2.78;;;;;;;30.85;17.55;99844.59;4897255;29;20055;-76
2022/05/30 07:51:08;;;;;;;3.00;2.70;;;;;;;33.66;15.91;99859.16;4859693;29;20116;-77
2022/05/30 07:53:44;;;;;;;3.45;2.95;;;;;;;35.93;13.88;99858.94;4859563;29;20475;-77
2022/05/30 07:56:38;;;;;;;4.07;2.95;;;;;;;36.99;12.94;99856.47;4866679;29;20063;-74
2022/05/30 07:59:03;;;;;;;3.78;3.10;;;;;;;37.54;12.63;99857.56;4880460;29;20087;-74
2022/05/30 08:01:28;;;;;;;3.67;3.38;;;;;;;37.34;12.42;99852.03;4916765;29;20051;-73
2022/05/30 08:03:53;;;;;;;3.92;3.63;;;;;;;37.55;12.29;99856.44;4916093;29;20051;-73
2022/05/30 08:06:33;;;;;;;3.65;3.40;;;;;;;38.37;12.77;99852.28;4916062;29;20182;-73
2022/05/30 08:09:17;;;;;;;4.35;3.90;;;;;;;38.71;11.72;99860.75;4916023;29;20055;-74
2022/05/30 08:12:00;;;;;;;3.95;3.60;;;;;;;39.04;11.15;99867.47;4913535;29;20050;-73
2022/05/30 08:14:43;;;;;;;;;;;;;;;40.02;10.37;99882.16;4929769;28;20505;-74
2022/05/30 08:17:08;;;;;;;4.50;4.20;;;;;;;38.46;11.19;99870.06;4915679;29;20387;-72
2022/05/30 08:19:34;;;;;;;4.03;3.75;;;;;;;38.66;10.93;99873.84;4943686;28;20115;-73
2022/05/30 08:22:05;;;;;;;7.15;4.20;;;;;;;40.13;10.13;99889.28;4976235;28;20049;-74
2022/05/30 08:24:35;;;;;;;5.05;4.65;;;;;;;40.71;9.96;99891.91;4976730;28;20412;-72
2022/05/30 08:27:03;;;;;;;5.28;4.78;;;;;;;41.49;10.13;99910.75;4964345;28;20037;-73
2022/05/30 08:29:54;;;;;;;6.60;4.72;;;;;;;41.57;8.93;99899.72;5061177;28;20061;-72
2022/05/30 08:32:19;;;;;;;4.68;4.38;;;;;;;41.87;9.66;99894.69;5062439;28;20082;-74
2022/05/30 08:34:58;;;;;;;6.00;5.50;;;;;;;42.55;9.23;99894.69;5075828;28;20047;-73
2022/05/30 08:37:30;;;;;;;5.85;5.45;;;;;;;43.90;8.51;99893.53;5040674;28;20486;-72
2022/05/30 08:42:38;;;;;;;7.32;6.82;;;;;;;46.30;7.50;99912.69;5082116;28;20372;-70
2022/05/30 08:45:12;;;;;;;7.90;7.30;;;;;;;46.96;7.27;99911.69;5066506;28;20043;-71
2022/05/30 08:48:11;;;;;;;9.90;9.05;;;;;;;48.11;6.72;99919.50;4980034;28;20085;-70
2022/05/30 08:50:46;;;;;;;11.40;10.35;;;;;;;48.42;6.78;99916.94;4963294;28;20096;-70
2022/05/30 08:53:20;;;;;;;11.93;11.23;;;;;;;48.27;6.02;99918.47;4947278;28;20460;-70
2022/05/30 08:55:54;;;;;;;12.45;11.65;;;;;;;48.27;6.41;99900.66;4979615;28;20122;-72
2022/05/30 08:58:56;;;;;;;14.67;13.73;;;;;;;49.39;6.28;99911.00;4979471;28;20085;-71
2022/05/30 09:01:31;;;;;;;13.35;12.55;;;;;;;50.09;6.31;99914.09;4979603;28;20101;-70
2022/05/30 09:04:49;;;;;;;14.55;13.65;;;;;;;50.20;5.73;99908.72;4903445;29;20141;-71
2022/05/30 09:07:25;;;;;;;15.90;15.00;;;;;;;50.72;5.42;99916.00;4886944;29;20556;-71
2022/05/30 09:10:06;;;;;;;16.48;15.25;;;;;;;50.05;5.65;99924.53;4902465;29;20422;-72
2022/05/30 09:12:52;;;;;;;15.27;14.25;;;;;;;49.54;5.29;99917.91;4903122;29;20056;-72
2022/05/30 09:16:07;;;;;;;15.25;14.35;;;;;;;48.34;6.34;99904.53;4865415;29;20060;-72
2022/05/30 09:18:45;;;;;;;12.60;11.90;;;;;;;46.84;7.38;99893.91;4851074;29;20052;-73
2022/05/30 09:21:10;;;;;;;13.13;12.25;;;;;;;46.73;6.71;99889.84;4865331;29;20056;-72
2022/05/30 09:23:38;;;;;;;12.02;11.07;;;;;;;46.90;6.54;99887.69;4865105;29;20056;-72
2022/05/30 09:26:07;;;;;;;11.93;11.13;;;;;;;46.80;6.87;99899.41;4920678;29;20059;-73
2022/05/30 09:28:43;;;;;;;13.45;12.68;;;;;;;47.52;6.65;99905.75;4928032;28;20509;-74
2022/05/30 09:31:36;;;;;;;12.60;11.77;;;;;;;49.00;6.35;99906.19;4942260;28;20413;-74
2022/05/30 09:34:45;;;;;;;13.48;12.70;;;;;;;48.15;6.39;99904.34;4948078;28;20050;-76
2022/05/30 09:37:32;;;;;;;11.90;11.07;;;;;;;46.92;6.47;99893.00;4999559;28;20566;-74
2022/05/30 09:40:20;;;;;;;9.52;8.93;;;;;;;44.71;7.53;99896.72;4998654;28;20053;-75
2022/05/30 09:43:27;;;;;;;7.25;6.65;;;;;;;41.50;9.53;99895.63;4986323;28;20132;-73
2022/05/30 09:45:52;;;;;;;6.28;5.65;;;;;;;39.54;10.31;99873.72;5011454;28;20051;-75
2022/05/30 09:48:36;;;;;;;5.70;5.20;;;;;;;40.80;10.41;99867.69;5063689;28;20047;-73
2022/05/30 09:51:09;;;;;;;6.80;6.30;;;;;;;42.81;9.51;99877.25;5063259;28;20043;-75
2022/05/30 09:53:46;;;;;;;8.05;7.35;;;;;;;45.14;8.73;99873.44;5044384;28;20383;-73
2022/05/30 09:56:19;;;;;;;6.63;6.20;;;;;;;45.40;7.91;99882.63;5045664;28;20050;-72
2022/05/30 09:59:01;;;;;;;6.60;6.10;;;;;;;44.03;7.88;99877.72;5059944;28;20597;-74
2022/05/30 10:01:48;;;;;;;6.13;5.63;;;;;;;41.00;8.90;99870.16;5043218;28;20039;-73
2022/05/30 10:04:19;;;;;;;6.43;5.30;;;;;;;39.59;9.76;99858.91;5043136;28;20039;-71
2022/05/30 10:07:05;;;;;;;5.57;5.18;;;;;;;40.44;9.92;99865.41;5044591;28;20047;-72
2022/05/30 10:10:02;;;;;;;5.55;5.15;;;;;;;41.74;9.02;99857.13;5042982;28;20120;-72
2022/05/30 10:12:38;;;;;;;6.30;5.90;;;;;;;42.71;8.86;99858.69;5059231;28;20100;-73
2022/05/30 10:15:30;;;;;;;5.90;5.50;;;;;;;43.63;8.07;99862.84;5059587;28;20053;-73
2022/05/30 10:18:16;;;;;;;6.43;6.03;;;;;;;42.77;8.49;99853.78;5059100;28;20048;-74
2022/05/30 10:21:11;;;;;;;6.68;6.13;;;;;;;44.30;7.59;99862.59;5025725;28;20047;-74
2022/05/30 10:28:14;;;;;;;6.82;6.40;;;;;;;45.02;7.78;99856.38;4993381;28;20055;-75
2022/05/30 10:31:22;;;;;;;7.22;6.60;;;;;;;40.79;9.04;99841.69;4994946;28;20137;-74
2022/05/30 10:34:47;;;;;;;5.97;5.47;;;;;;;36.91;10.30;99842.31;4995627;28;20120;-76
2022/05/30 10:37:28;;;;;;;4.07;3.78;;;;;;;33.76;13.14;99825.28;4964582;28;20082;-74
2022/05/30 10:40:05;;;;;;;4.47;3.70;;;;;;;32.27;15.07;99825.00;4980783;28;20045;-75
2022/05/30 10:42:35;;;;;;;3.65;3.38;;;;;;;30.70;15.36;99818.63;4997351;28;20096;-71
2022/05/30 10:45:18;;;;;;;3.13;2.85;;;;;;;29.50;16.22;99815.72;4959182;28;20053;-71
2022/05/30 10:47:45;;;;;;;3.22;2.75;;;;;;;27.09;19.28;99811.97;4976031;28;20046;-71
2022/05/30 10:50:22;;;;;;;6.45;3.13;;;;;;;26.83;19.12;99812.00;4942778;28;20072;-72
2022/05/30 10:52:53;;;;;;;4.20;2.55;;;;;;;25.99;20.14;99811.59;4961658;28;20101;-74
2022/05/30 10:55:36;;;;;;;4.68;2.80;;;;;;;25.45;20.42;99809.63;4967505;28;20484;-74
2022/05/30 10:58:10;;;;;;;3.72;2.60;;;;;;;24.66;21.25;99802.75;4963819;28;20086;-71
2022/05/30 11:00:43;;;;;;;4.47;2.95;;;;;;;23.71;23.40;99806.50;5019886;28;20534;-77
2022/05/30 11:03:29;;;;;;;3.47;2.58;;;;;;;23.51;23.22;99792.66;4985264;28;20048;-74
2022/05/30 11:06:08;;;;;;;5.57;2.35;;;;;;;23.13;23.13;99793.75;5012524;28;20037;-77
2022/05/30 11:08:50;;;;;;;6.57;2.67;;;;;;;22.90;24.18;99787.53;5015258;28;20056;-77
2022/05/30 11:11:23;;;;;;;3.38;2.28;;;;;;;22.61;24.77;99780.97;5038628;28;20044;-75
2022/05/30 11:14:18;;;;;;;3.05;2.22;;;;;;;22.57;24.91;99778.81;5038811;28;20477;-74
2022/05/30 11:17:08;;;;;;;4.85;2.92;;;;;;;22.45;24.42;99773.81;5040657;28;20093;-74
2022/05/30 11:20:16;;;;;;;5.07;2.35;;;;;;;22.31;24.97;99774.59;4995816;28;20041;-74
2022/05/30 11:22:56;;;;;;;3.70;2.33;;;;;;;22.02;24.73;99772.59;4962721;28;20080;-73
2022/05/30 11:25:50;;;;;;;5.57;2.78;;;;;;;22.12;23.86;99766.09;4994419;28;20049;-73
2022/05/30 11:28:53;;;;;;;3.17;2.17;;;;;;;21.93;24.21;99762.78;4977339;28;20080;-73
2022/05/30 11:31:27;;;;;;;2.35;1.85;;;;;;;21.43;25.41;99756.97;4993516;28;20045;-71
2022/05/30 11:34:10;;;;;;;2.33;2.13;;;;;;;21.44;25.19;99754.09;4987269;28;20042;-74
2022/05/30 11:36:38;;;;;;;5.00;2.45;;;;;;;21.22;26.16;99747.53;4991836;28;20128;-71
2022/05/30 11:39:26;;;;;;;4.53;2.22;;;;;;;21.14;25.93;99755.69;4993978;28;20156;-73
2022/05/30 11:42:01;;;;;;;3.67;2.08;;;;;;;21.09;26.10;99758.09;4992899;28;20265;-71
2022/05/30 11:44:37;;;;;;;;;;;;;;;21.13;25.15;99762.13;4977026;28;20033;-72
2022/05/30 11:47:25;;;;;;;3.92;1.88;;;;;;;20.94;26.91;99752.53;4993131;28;19924;-72
2022/05/30 11:50:08;;;;;;;3.47;2.78;;;;;;;20.97;25.91;99745.91;4963396;28;20057;-73
2022/05/30 11:52:50;;;;;;;2.88;2.00;;;;;;;20.87;25.99;99742.56;4994386;28;20453;-72
2022/05/30 11:55:36;;;;;;;3.45;2.17;;;;;;;20.86;27.05;99733.59;5086065;27;20054;-73
2022/05/30 11:58:33;;;;;;;3.15;2.78;;;;;;;20.79;26.41;99729.00;5066994;28;20062;-72
2022/05/30 12:00:59;;;;;;;4.38;2.30;;;;;;;20.55;27.92;99730.75;5026154;28;20135;-74
2022/05/30 12:03:39;;;;;;;6.78;2.63;;;;;;;20.53;27.91;99738.22;5049656;28;20115;-73
2022/05/30 12:06:09;;;;;;;2.55;2.35;;;;;;;20.54;27.73;99739.88;5063575;27;20045;-76
2022/05/30 12:09:05;;;;;;;4.60;2.20;;;;;;;20.60;27.47;99731.09;5087125;27;20075;-70
2022/05/30 12:11:57;;;;;;;3.05;2.10;;;;;;;20.67;28.88;99734.78;5084511;27;20039;-69
2022/05/30 12:14:22;;;;;;;1.95;1.80;;;;;;;20.76;27.27;99729.38;5095887;27;20549;-76
2022/05/30 12:17:02;;;;;;;4.28;1.92;;;;;;;20.85;26.69;99731.03;5078186;27;20545;-78
2022/05/30 12:25:36;;;;;;;3.60;2.05;;;;;;;21.01;26.18;99728.28;5053603;28;20132;-72
2022/05/30 12:28:01;;;;;;;2.55;2.35;;;;;;;20.87;26.68;99732.56;5059597;28;20436;-75
2022/05/30 12:30:46;;;;;;;6.50;1.73;;;;;;;20.90;26.10;99726.78;5059280;28;20047;-76
2022/05/30 12:33:29;;;;;;;1.95;1.75;;;;;;;20.70;26.46;99722.78;5058673;28;20062;-74